sensor_id;sensor_type;location;lat;lon;timestamp;temperature;humidity
65048;DHT22;52089;51.362;-2.384;2022-11-03T00:03:01;11.60;99.90
65048;DHT22;52089;51.362;-2.384;2022-11-03T00:06:45;11.60;99.90
65048;DHT22;52089;51.362;-2.384;2022-11-03T00:10:28;11.60;99.90
65048;DHT22;52089;51.362;-2.384;2022-11-03T00:14:11;11.60;99.90
65048;DHT22;52089;51.362;-2.384;2022-11-03T00:17:53;11.60;99.90
65048;DHT22;52089;51.362;-2.384;2022-11-03T00:21:35;11.50;99.90
65048;DHT22;52089;51.362;-2.384;2022-11-03T00:25:17;11.50;99.90
65048;DHT22;52089;51.362;-2.384;2022-11-03T00:29:07;11.50;99.90
65048;DHT22;52089;51.362;-2.384;2022-11-03T00:32:49;11.50;99.90
65048;DHT22;52089;51.362;-2.384;2022-11-03T00:36:33;11.50;99.90
65048;DHT22;52089;51.362;-2.384;2022-11-03T00:40:15;11.40;99.90
65048;DHT22;52089;51.362;-2.384;2022-11-03T00:43:57;11.50;99.90
65048;DHT22;52089;51.362;-2.384;2022-11-03T00:47:39;11.40;99.90
65048;DHT22;52089;51.362;-2.384;2022-11-03T00:51:40;11.40;99.90
65048;DHT22;52089;51.362;-2.384;2022-11-03T00:55:22;11.40;99.90
65048;DHT22;52089;51.362;-2.384;2022-11-03T00:59:06;11.40;99.90
65048;DHT22;52089;51.362;-2.384;2022-11-03T01:02:48;11.30;99.90
65048;DHT22;52089;51.362;-2.384;2022-11-03T01:06:32;11.30;99.90
65048;DHT22;52089;51.362;-2.384;2022-11-03T01:10:35;11.20;99.90
65048;DHT22;52089;51.362;-2.384;2022-11-03T01:14:18;11.20;99.90
65048;DHT22;52089;51.362;-2.384;2022-11-03T01:18:00;11.10;99.90
65048;DHT22;52089;51.362;-2.384;2022-11-03T01:21:42;11.10;99.90
65048;DHT22;52089;51.362;-2.384;2022-11-03T01:25:24;11.00;99.90
65048;DHT22;52089;51.362;-2.384;2022-11-03T01:29:06;11.00;99.90
65048;DHT22;52089;51.362;-2.384;2022-11-03T01:32:48;10.90;99.90
65048;DHT22;52089;51.362;-2.384;2022-11-03T01:36:30;10.90;99.90
65048;DHT22;52089;51.362;-2.384;2022-11-03T01:40:12;10.80;99.90
65048;DHT22;52089;51.362;-2.384;2022-11-03T01:47:47;10.70;99.90
65048;DHT22;52089;51.362;-2.384;2022-11-03T01:51:31;10.70;99.90
65048;DHT22;52089;51.362;-2.384;2022-11-03T01:55:33;10.70;99.90
65048;DHT22;52089;51.362;-2.384;2022-11-03T01:59:17;10.60;99.90
65048;DHT22;52089;51.362;-2.384;2022-11-03T02:03:01;10.50;99.90
65048;DHT22;52089;51.362;-2.384;2022-11-03T02:06:43;10.50;99.90
65048;DHT22;52089;51.362;-2.384;2022-11-03T02:10:26;10.50;99.90
65048;DHT22;52089;51.362;-2.384;2022-11-03T02:14:11;10.50;99.90
65048;DHT22;52089;51.362;-2.384;2022-11-03T02:17:54;10.50;99.90
65048;DHT22;52089;51.362;-2.384;2022-11-03T02:21:51;10.40;99.90
65048;DHT22;52089;51.362;-2.384;2022-11-03T02:25:40;10.30;99.90
65048;DHT22;52089;51.362;-2.384;2022-11-03T02:29:23;10.30;99.90
65048;DHT22;52089;51.362;-2.384;2022-11-03T02:37:16;10.20;99.90
65048;DHT22;52089;51.362;-2.384;2022-11-03T02:41:00;10.20;99.90
65048;DHT22;52089;51.362;-2.384;2022-11-03T02:44:44;10.20;99.90
65048;DHT22;52089;51.362;-2.384;2022-11-03T02:48:27;10.20;99.90
65048;DHT22;52089;51.362;-2.384;2022-11-03T02:52:39;10.20;99.90
65048;DHT22;52089;51.362;-2.384;2022-11-03T02:56:22;10.10;99.90
65048;DHT22;52089;51.362;-2.384;2022-11-03T03:00:06;10.10;99.90
65048;DHT22;52089;51.362;-2.384;2022-11-03T03:03:54;10.10;99.90
65048;DHT22;52089;51.362;-2.384;2022-11-03T03:07:42;10.10;99.90
65048;DHT22;52089;51.362;-2.384;2022-11-03T03:11:25;10.10;99.90
65048;DHT22;52089;51.362;-2.384;2022-11-03T03:24:04;10.00;99.90
65048;DHT22;52089;51.362;-2.384;2022-11-03T03:27:51;10.00;99.90
65048;DHT22;52089;51.362;-2.384;2022-11-03T03:31:37;10.00;99.90
65048;DHT22;52089;51.362;-2.384;2022-11-03T03:35:24;10.00;99.90
65048;DHT22;52089;51.362;-2.384;2022-11-03T03:39:10;9.90;99.90
65048;DHT22;52089;51.362;-2.384;2022-11-03T03:42:53;9.90;99.90
65048;DHT22;52089;51.362;-2.384;2022-11-03T03:46:41;9.90;99.90
65048;DHT22;52089;51.362;-2.384;2022-11-03T03:50:26;9.80;99.90
65048;DHT22;52089;51.362;-2.384;2022-11-03T03:54:10;9.80;99.90
65048;DHT22;52089;51.362;-2.384;2022-11-03T03:57:52;9.80;99.90
65048;DHT22;52089;51.362;-2.384;2022-11-03T04:01:38;9.80;99.90
65048;DHT22;52089;51.362;-2.384;2022-11-03T04:05:20;9.80;99.90
65048;DHT22;52089;51.362;-2.384;2022-11-03T04:09:02;9.80;99.90
65048;DHT22;52089;51.362;-2.384;2022-11-03T04:12:44;9.70;99.90
65048;DHT22;52089;51.362;-2.384;2022-11-03T04:16:44;9.70;99.90
65048;DHT22;52089;51.362;-2.384;2022-11-03T04:20:45;9.70;99.90
65048;DHT22;52089;51.362;-2.384;2022-11-03T04:24:49;9.70;99.90
65048;DHT22;52089;51.362;-2.384;2022-11-03T04:28:31;9.70;99.90
65048;DHT22;52089;51.362;-2.384;2022-11-03T04:32:15;9.60;99.90
65048;DHT22;52089;51.362;-2.384;2022-11-03T04:35:59;9.60;99.90
65048;DHT22;52089;51.362;-2.384;2022-11-03T04:39:42;9.60;99.90
65048;DHT22;52089;51.362;-2.384;2022-11-03T04:43:35;9.50;99.90
65048;DHT22;52089;51.362;-2.384;2022-11-03T04:47:17;9.50;99.90
65048;DHT22;52089;51.362;-2.384;2022-11-03T04:51:01;9.50;99.90
65048;DHT22;52089;51.362;-2.384;2022-11-03T04:54:48;9.50;99.90
65048;DHT22;52089;51.362;-2.384;2022-11-03T04:58:33;9.50;99.90
65048;DHT22;52089;51.362;-2.384;2022-11-03T05:02:18;9.50;99.90
65048;DHT22;52089;51.362;-2.384;2022-11-03T05:06:15;9.40;99.90
65048;DHT22;52089;51.362;-2.384;2022-11-03T05:09:59;9.40;99.90
65048;DHT22;52089;51.362;-2.384;2022-11-03T05:13:40;9.30;99.90
65048;DHT22;52089;51.362;-2.384;2022-11-03T05:17:25;9.30;99.90
65048;DHT22;52089;51.362;-2.384;2022-11-03T05:21:11;9.30;99.90
65048;DHT22;52089;51.362;-2.384;2022-11-03T05:25:00;9.30;99.90
65048;DHT22;52089;51.362;-2.384;2022-11-03T05:28:51;9.30;99.90
65048;DHT22;52089;51.362;-2.384;2022-11-03T05:32:35;9.30;99.90
65048;DHT22;52089;51.362;-2.384;2022-11-03T05:36:20;9.30;99.90
65048;DHT22;52089;51.362;-2.384;2022-11-03T05:40:23;9.20;99.90
65048;DHT22;52089;51.362;-2.384;2022-11-03T05:44:28;9.20;99.90
65048;DHT22;52089;51.362;-2.384;2022-11-03T05:48:19;9.20;99.90
65048;DHT22;52089;51.362;-2.384;2022-11-03T05:52:04;9.20;99.90
65048;DHT22;52089;51.362;-2.384;2022-11-03T05:55:59;9.10;99.90
65048;DHT22;52089;51.362;-2.384;2022-11-03T05:59:45;9.20;99.90
65048;DHT22;52089;51.362;-2.384;2022-11-03T06:03:28;9.10;99.90
65048;DHT22;52089;51.362;-2.384;2022-11-03T06:07:23;9.20;99.90
65048;DHT22;52089;51.362;-2.384;2022-11-03T06:11:09;9.20;99.90
65048;DHT22;52089;51.362;-2.384;2022-11-03T06:14:55;9.20;99.90
65048;DHT22;52089;51.362;-2.384;2022-11-03T06:18:37;9.20;99.90
65048;DHT22;52089;51.362;-2.384;2022-11-03T06:22:35;9.20;99.90
65048;DHT22;52089;51.362;-2.384;2022-11-03T06:26:21;9.20;99.90
65048;DHT22;52089;51.362;-2.384;2022-11-03T06:30:28;9.20;99.90
65048;DHT22;52089;51.362;-2.384;2022-11-03T06:38:17;9.30;99.90
65048;DHT22;52089;51.362;-2.384;2022-11-03T06:42:11;9.30;99.90
65048;DHT22;52089;51.362;-2.384;2022-11-03T06:45:57;9.30;99.90
65048;DHT22;52089;51.362;-2.384;2022-11-03T06:49:39;9.30;99.90
65048;DHT22;52089;51.362;-2.384;2022-11-03T06:53:27;9.30;99.90
65048;DHT22;52089;51.362;-2.384;2022-11-03T06:57:13;9.40;99.90
65048;DHT22;52089;51.362;-2.384;2022-11-03T07:01:00;9.40;99.90
65048;DHT22;52089;51.362;-2.384;2022-11-03T07:04:44;9.40;99.90
65048;DHT22;52089;51.362;-2.384;2022-11-03T07:08:50;9.50;99.90
65048;DHT22;52089;51.362;-2.384;2022-11-03T07:12:33;9.50;99.90
65048;DHT22;52089;51.362;-2.384;2022-11-03T07:16:53;9.50;99.90
65048;DHT22;52089;51.362;-2.384;2022-11-03T07:20:27;9.50;99.90
65048;DHT22;52089;51.362;-2.384;2022-11-03T07:24:26;9.60;99.90
65048;DHT22;52089;51.362;-2.384;2022-11-03T07:28:08;9.60;99.90
65048;DHT22;52089;51.362;-2.384;2022-11-03T07:31:51;9.60;99.90
65048;DHT22;52089;51.362;-2.384;2022-11-03T07:35:36;9.60;99.90
65048;DHT22;52089;51.362;-2.384;2022-11-03T07:39:41;9.60;99.90
65048;DHT22;52089;51.362;-2.384;2022-11-03T07:43:33;9.60;99.90
65048;DHT22;52089;51.362;-2.384;2022-11-03T07:47:19;9.60;99.90
65048;DHT22;52089;51.362;-2.384;2022-11-03T07:51:16;9.60;99.90
65048;DHT22;52089;51.362;-2.384;2022-11-03T07:55:00;9.60;99.90
65048;DHT22;52089;51.362;-2.384;2022-11-03T07:58:44;9.70;99.90
65048;DHT22;52089;51.362;-2.384;2022-11-03T08:06:20;9.70;99.90
65048;DHT22;52089;51.362;-2.384;2022-11-03T08:10:02;9.70;99.90
65048;DHT22;52089;51.362;-2.384;2022-11-03T08:13:44;9.80;99.90
65048;DHT22;52089;51.362;-2.384;2022-11-03T08:17:26;9.80;99.90
65048;DHT22;52089;51.362;-2.384;2022-11-03T08:21:08;9.80;99.90
65048;DHT22;52089;51.362;-2.384;2022-11-03T08:24:51;9.80;99.90
65048;DHT22;52089;51.362;-2.384;2022-11-03T08:28:34;9.80;99.90
65048;DHT22;52089;51.362;-2.384;2022-11-03T08:32:16;9.80;99.90
65048;DHT22;52089;51.362;-2.384;2022-11-03T08:35:58;9.80;99.90
65048;DHT22;52089;51.362;-2.384;2022-11-03T08:39:40;9.70;99.90
65048;DHT22;52089;51.362;-2.384;2022-11-03T08:43:22;9.70;99.90
65048;DHT22;52089;51.362;-2.384;2022-11-03T08:47:04;9.70;99.90
65048;DHT22;52089;51.362;-2.384;2022-11-03T08:50:46;9.70;99.90
65048;DHT22;52089;51.362;-2.384;2022-11-03T08:54:29;9.70;99.90
65048;DHT22;52089;51.362;-2.384;2022-11-03T08:58:11;9.70;99.90
65048;DHT22;52089;51.362;-2.384;2022-11-03T09:01:52;9.70;99.90
65048;DHT22;52089;51.362;-2.384;2022-11-03T09:05:34;9.70;99.90
65048;DHT22;52089;51.362;-2.384;2022-11-03T09:09:17;9.60;99.90
65048;DHT22;52089;51.362;-2.384;2022-11-03T09:13:18;9.60;99.90
65048;DHT22;52089;51.362;-2.384;2022-11-03T09:17:00;9.70;99.90
65048;DHT22;52089;51.362;-2.384;2022-11-03T09:20:43;9.70;99.90
65048;DHT22;52089;51.362;-2.384;2022-11-03T09:24:26;9.70;99.90
65048;DHT22;52089;51.362;-2.384;2022-11-03T09:28:08;9.70;99.90
65048;DHT22;52089;51.362;-2.384;2022-11-03T09:31:50;9.80;99.90
65048;DHT22;52089;51.362;-2.384;2022-11-03T09:35:32;9.90;99.90
65048;DHT22;52089;51.362;-2.384;2022-11-03T09:39:13;9.90;99.90
65048;DHT22;52089;51.362;-2.384;2022-11-03T09:42:56;9.90;99.90
65048;DHT22;52089;51.362;-2.384;2022-11-03T09:46:38;10.00;99.90
65048;DHT22;52089;51.362;-2.384;2022-11-03T09:50:20;10.10;99.90
65048;DHT22;52089;51.362;-2.384;2022-11-03T09:54:03;10.20;99.90
65048;DHT22;52089;51.362;-2.384;2022-11-03T09:57:46;10.40;99.90
65048;DHT22;52089;51.362;-2.384;2022-11-03T10:01:29;10.90;99.90
65048;DHT22;52089;51.362;-2.384;2022-11-03T10:05:19;11.30;99.90
65048;DHT22;52089;51.362;-2.384;2022-11-03T10:09:03;11.50;99.90
65048;DHT22;52089;51.362;-2.384;2022-11-03T10:12:47;11.80;99.90
65048;DHT22;52089;51.362;-2.384;2022-11-03T10:16:29;12.10;99.90
65048;DHT22;52089;51.362;-2.384;2022-11-03T10:20:13;12.30;99.90
65048;DHT22;52089;51.362;-2.384;2022-11-03T10:23:55;12.40;99.90
65048;DHT22;52089;51.362;-2.384;2022-11-03T10:27:37;12.50;99.90
65048;DHT22;52089;51.362;-2.384;2022-11-03T10:31:20;12.50;99.90
65048;DHT22;52089;51.362;-2.384;2022-11-03T10:35:31;12.70;99.90
65048;DHT22;52089;51.362;-2.384;2022-11-03T10:39:28;13.20;99.90
65048;DHT22;52089;51.362;-2.384;2022-11-03T10:43:11;13.60;99.90
65048;DHT22;52089;51.362;-2.384;2022-11-03T10:47:03;13.80;99.90
65048;DHT22;52089;51.362;-2.384;2022-11-03T10:50:45;14.50;99.90
65048;DHT22;52089;51.362;-2.384;2022-11-03T10:54:34;15.80;99.90
65048;DHT22;52089;51.362;-2.384;2022-11-03T10:58:16;17.10;99.90
65048;DHT22;52089;51.362;-2.384;2022-11-03T11:01:59;18.20;99.90
65048;DHT22;52089;51.362;-2.384;2022-11-03T11:05:45;19.10;99.90
65048;DHT22;52089;51.362;-2.384;2022-11-03T11:09:29;19.80;99.90
65048;DHT22;52089;51.362;-2.384;2022-11-03T11:13:23;20.60;99.90
65048;DHT22;52089;51.362;-2.384;2022-11-03T11:25:05;21.60;99.90
65048;DHT22;52089;51.362;-2.384;2022-11-03T11:33:13;21.00;99.90
65048;DHT22;52089;51.362;-2.384;2022-11-03T11:40:57;21.90;99.90
65048;DHT22;52089;51.362;-2.384;2022-11-03T11:48:26;22.90;99.90
65048;DHT22;52089;51.362;-2.384;2022-11-03T11:52:08;23.30;99.90
65048;DHT22;52089;51.362;-2.384;2022-11-03T11:55:58;23.50;99.90
65048;DHT22;52089;51.362;-2.384;2022-11-03T11:59:44;23.30;99.90
65048;DHT22;52089;51.362;-2.384;2022-11-03T12:03:30;23.30;99.90
65048;DHT22;52089;51.362;-2.384;2022-11-03T12:07:12;23.60;99.90
65048;DHT22;52089;51.362;-2.384;2022-11-03T12:10:56;23.90;99.90
65048;DHT22;52089;51.362;-2.384;2022-11-03T12:14:39;24.30;99.90
65048;DHT22;52089;51.362;-2.384;2022-11-03T12:18:47;24.10;99.90
65048;DHT22;52089;51.362;-2.384;2022-11-03T12:22:39;24.70;99.90
65048;DHT22;52089;51.362;-2.384;2022-11-03T12:30:12;23.70;99.90
65048;DHT22;52089;51.362;-2.384;2022-11-03T12:33:54;22.60;99.90
65048;DHT22;52089;51.362;-2.384;2022-11-03T12:37:36;21.50;99.90
65048;DHT22;52089;51.362;-2.384;2022-11-03T12:41:18;20.50;99.90
65048;DHT22;52089;51.362;-2.384;2022-11-03T12:45:05;19.70;99.90
65048;DHT22;52089;51.362;-2.384;2022-11-03T12:48:48;19.10;99.90
65048;DHT22;52089;51.362;-2.384;2022-11-03T12:52:30;18.30;99.90
65048;DHT22;52089;51.362;-2.384;2022-11-03T12:56:13;17.70;99.90
65048;DHT22;52089;51.362;-2.384;2022-11-03T12:59:55;17.10;99.90
65048;DHT22;52089;51.362;-2.384;2022-11-03T13:03:37;16.40;99.90
65048;DHT22;52089;51.362;-2.384;2022-11-03T13:07:19;15.50;99.90
65048;DHT22;52089;51.362;-2.384;2022-11-03T13:11:09;14.60;99.90
65048;DHT22;52089;51.362;-2.384;2022-11-03T13:15:10;13.60;99.90
65048;DHT22;52089;51.362;-2.384;2022-11-03T13:18:54;13.10;99.90
65048;DHT22;52089;51.362;-2.384;2022-11-03T13:22:35;12.80;99.90
65048;DHT22;52089;51.362;-2.384;2022-11-03T13:26:19;12.50;99.90
65048;DHT22;52089;51.362;-2.384;2022-11-03T13:30:00;12.20;99.90
65048;DHT22;52089;51.362;-2.384;2022-11-03T13:33:42;12.30;99.90
65048;DHT22;52089;51.362;-2.384;2022-11-03T13:37:24;13.40;99.90
65048;DHT22;52089;51.362;-2.384;2022-11-03T13:41:06;14.00;99.90
65048;DHT22;52089;51.362;-2.384;2022-11-03T13:44:49;13.90;99.90
65048;DHT22;52089;51.362;-2.384;2022-11-03T13:48:31;13.60;99.90
65048;DHT22;52089;51.362;-2.384;2022-11-03T13:52:33;13.40;99.90
65048;DHT22;52089;51.362;-2.384;2022-11-03T13:56:15;13.10;99.90
65048;DHT22;52089;51.362;-2.384;2022-11-03T14:00:04;12.80;99.90
65048;DHT22;52089;51.362;-2.384;2022-11-03T14:03:46;12.70;99.90
65048;DHT22;52089;51.362;-2.384;2022-11-03T14:07:48;12.60;99.90
65048;DHT22;52089;51.362;-2.384;2022-11-03T14:11:31;12.40;99.90
65048;DHT22;52089;51.362;-2.384;2022-11-03T14:15:31;12.00;99.90
65048;DHT22;52089;51.362;-2.384;2022-11-03T14:19:15;12.20;99.90
65048;DHT22;52089;51.362;-2.384;2022-11-03T14:22:56;13.50;99.90
65048;DHT22;52089;51.362;-2.384;2022-11-03T14:26:38;14.80;99.90
65048;DHT22;52089;51.362;-2.384;2022-11-03T14:30:23;15.60;99.90
65048;DHT22;52089;51.362;-2.384;2022-11-03T14:34:05;16.00;99.90
65048;DHT22;52089;51.362;-2.384;2022-11-03T14:37:47;16.40;99.90
65048;DHT22;52089;51.362;-2.384;2022-11-03T14:41:28;16.70;99.90
65048;DHT22;52089;51.362;-2.384;2022-11-03T14:45:29;17.00;99.90
65048;DHT22;52089;51.362;-2.384;2022-11-03T14:49:11;17.30;99.90
65048;DHT22;52089;51.362;-2.384;2022-11-03T14:52:53;17.30;99.90
65048;DHT22;52089;51.362;-2.384;2022-11-03T14:56:40;16.70;99.90
65048;DHT22;52089;51.362;-2.384;2022-11-03T15:00:22;16.00;99.90
65048;DHT22;52089;51.362;-2.384;2022-11-03T15:04:04;16.00;99.90
65048;DHT22;52089;51.362;-2.384;2022-11-03T15:07:46;15.90;99.90
65048;DHT22;52089;51.362;-2.384;2022-11-03T15:11:27;15.90;99.90
65048;DHT22;52089;51.362;-2.384;2022-11-03T15:15:09;15.70;99.90
65048;DHT22;52089;51.362;-2.384;2022-11-03T15:18:51;15.60;99.90
65048;DHT22;52089;51.362;-2.384;2022-11-03T15:22:33;15.40;99.90
65048;DHT22;52089;51.362;-2.384;2022-11-03T15:26:35;15.30;99.90
65048;DHT22;52089;51.362;-2.384;2022-11-03T15:30:17;14.70;99.90
65048;DHT22;52089;51.362;-2.384;2022-11-03T15:33:59;14.00;99.90
65048;DHT22;52089;51.362;-2.384;2022-11-03T15:37:46;13.30;99.90
65048;DHT22;52089;51.362;-2.384;2022-11-03T15:41:28;12.80;99.90
65048;DHT22;52089;51.362;-2.384;2022-11-03T15:45:13;12.20;99.90
65048;DHT22;52089;51.362;-2.384;2022-11-03T15:48:55;11.70;99.90
65048;DHT22;52089;51.362;-2.384;2022-11-03T15:52:38;11.30;99.90
65048;DHT22;52089;51.362;-2.384;2022-11-03T15:56:20;10.90;99.90
65048;DHT22;52089;51.362;-2.384;2022-11-03T16:00:03;10.60;99.90
65048;DHT22;52089;51.362;-2.384;2022-11-03T16:03:46;10.40;99.90
65048;DHT22;52089;51.362;-2.384;2022-11-03T16:07:28;10.10;99.90
65048;DHT22;52089;51.362;-2.384;2022-11-03T16:11:10;10.10;99.90
65048;DHT22;52089;51.362;-2.384;2022-11-03T16:14:52;10.00;99.90
65048;DHT22;52089;51.362;-2.384;2022-11-03T16:18:34;9.80;99.90
65048;DHT22;52089;51.362;-2.384;2022-11-03T16:22:16;9.80;99.90
65048;DHT22;52089;51.362;-2.384;2022-11-03T16:25:58;9.70;99.90
65048;DHT22;52089;51.362;-2.384;2022-11-03T16:29:40;9.60;99.90
65048;DHT22;52089;51.362;-2.384;2022-11-03T16:33:22;9.50;99.90
65048;DHT22;52089;51.362;-2.384;2022-11-03T16:37:03;9.40;99.90
65048;DHT22;52089;51.362;-2.384;2022-11-03T16:40:45;9.30;99.90
65048;DHT22;52089;51.362;-2.384;2022-11-03T16:44:27;9.30;99.90
65048;DHT22;52089;51.362;-2.384;2022-11-03T16:48:09;9.20;99.90
65048;DHT22;52089;51.362;-2.384;2022-11-03T16:51:51;9.20;99.90
65048;DHT22;52089;51.362;-2.384;2022-11-03T16:55:33;9.20;99.90
65048;DHT22;52089;51.362;-2.384;2022-11-03T16:59:15;9.10;99.90
65048;DHT22;52089;51.362;-2.384;2022-11-03T17:02:56;9.20;99.90
65048;DHT22;52089;51.362;-2.384;2022-11-03T17:06:40;9.10;99.90
65048;DHT22;52089;51.362;-2.384;2022-11-03T17:10:22;9.10;99.90
65048;DHT22;52089;51.362;-2.384;2022-11-03T17:14:08;9.20;99.90
65048;DHT22;52089;51.362;-2.384;2022-11-03T17:17:54;9.20;99.90
65048;DHT22;52089;51.362;-2.384;2022-11-03T17:21:36;9.20;99.90
65048;DHT22;52089;51.362;-2.384;2022-11-03T17:25:17;9.20;99.90
65048;DHT22;52089;51.362;-2.384;2022-11-03T17:28:59;9.10;99.90
65048;DHT22;52089;51.362;-2.384;2022-11-03T17:32:42;9.10;99.90
65048;DHT22;52089;51.362;-2.384;2022-11-03T17:36:24;9.10;99.90
65048;DHT22;52089;51.362;-2.384;2022-11-03T17:40:14;9.00;99.90
65048;DHT22;52089;51.362;-2.384;2022-11-03T17:43:56;9.00;99.90
65048;DHT22;52089;51.362;-2.384;2022-11-03T17:47:38;9.00;99.90
65048;DHT22;52089;51.362;-2.384;2022-11-03T17:51:20;9.10;99.90
65048;DHT22;52089;51.362;-2.384;2022-11-03T17:55:03;9.20;99.90
65048;DHT22;52089;51.362;-2.384;2022-11-03T17:58:46;9.20;99.90
65048;DHT22;52089;51.362;-2.384;2022-11-03T18:02:30;9.20;99.90
65048;DHT22;52089;51.362;-2.384;2022-11-03T18:06:17;9.30;99.90
65048;DHT22;52089;51.362;-2.384;2022-11-03T18:10:00;9.20;99.90
65048;DHT22;52089;51.362;-2.384;2022-11-03T18:13:41;9.20;99.90
65048;DHT22;52089;51.362;-2.384;2022-11-03T18:17:23;9.20;99.90
65048;DHT22;52089;51.362;-2.384;2022-11-03T18:21:05;9.20;99.90
65048;DHT22;52089;51.362;-2.384;2022-11-03T18:24:50;9.10;99.90
65048;DHT22;52089;51.362;-2.384;2022-11-03T18:28:32;9.10;99.90
65048;DHT22;52089;51.362;-2.384;2022-11-03T18:32:16;9.10;99.90
65048;DHT22;52089;51.362;-2.384;2022-11-03T18:36:04;9.20;99.90
65048;DHT22;52089;51.362;-2.384;2022-11-03T18:39:46;9.10;99.90
65048;DHT22;52089;51.362;-2.384;2022-11-03T18:43:28;9.20;99.90
65048;DHT22;52089;51.362;-2.384;2022-11-03T18:47:10;9.10;99.90
65048;DHT22;52089;51.362;-2.384;2022-11-03T18:50:54;9.20;99.90
65048;DHT22;52089;51.362;-2.384;2022-11-03T18:54:39;9.20;99.90
65048;DHT22;52089;51.362;-2.384;2022-11-03T18:58:23;9.20;99.90
65048;DHT22;52089;51.362;-2.384;2022-11-03T19:02:17;9.20;99.90
65048;DHT22;52089;51.362;-2.384;2022-11-03T19:05:59;9.20;99.90
65048;DHT22;52089;51.362;-2.384;2022-11-03T19:09:41;9.20;99.90
65048;DHT22;52089;51.362;-2.384;2022-11-03T19:13:27;9.10;99.90
65048;DHT22;52089;51.362;-2.384;2022-11-03T19:17:15;9.10;99.90
65048;DHT22;52089;51.362;-2.384;2022-11-03T19:21:13;9.10;99.90
65048;DHT22;52089;51.362;-2.384;2022-11-03T19:24:55;9.10;99.90
65048;DHT22;52089;51.362;-2.384;2022-11-03T19:28:37;9.10;99.90
65048;DHT22;52089;51.362;-2.384;2022-11-03T19:32:26;9.10;99.90
65048;DHT22;52089;51.362;-2.384;2022-11-03T19:36:08;9.10;99.90
65048;DHT22;52089;51.362;-2.384;2022-11-03T19:39:50;9.10;99.90
65048;DHT22;52089;51.362;-2.384;2022-11-03T19:43:32;9.10;99.90
65048;DHT22;52089;51.362;-2.384;2022-11-03T19:47:16;9.10;99.90
65048;DHT22;52089;51.362;-2.384;2022-11-03T19:50:58;9.20;99.90
65048;DHT22;52089;51.362;-2.384;2022-11-03T19:54:45;9.10;99.90
65048;DHT22;52089;51.362;-2.384;2022-11-03T19:58:28;9.10;99.90
65048;DHT22;52089;51.362;-2.384;2022-11-03T20:02:11;9.10;99.90
65048;DHT22;52089;51.362;-2.384;2022-11-03T20:05:55;9.10;99.90
65048;DHT22;52089;51.362;-2.384;2022-11-03T20:09:37;9.10;99.90
65048;DHT22;52089;51.362;-2.384;2022-11-03T20:13:24;9.10;99.90
65048;DHT22;52089;51.362;-2.384;2022-11-03T20:17:17;9.10;99.90
65048;DHT22;52089;51.362;-2.384;2022-11-03T20:21:03;9.10;99.90
65048;DHT22;52089;51.362;-2.384;2022-11-03T20:24:46;9.10;99.90
65048;DHT22;52089;51.362;-2.384;2022-11-03T20:28:29;9.10;99.90
65048;DHT22;52089;51.362;-2.384;2022-11-03T20:32:13;9.10;99.90
65048;DHT22;52089;51.362;-2.384;2022-11-03T20:35:55;9.10;99.90
65048;DHT22;52089;51.362;-2.384;2022-11-03T20:39:37;9.00;99.90
65048;DHT22;52089;51.362;-2.384;2022-11-03T20:43:28;8.90;99.90
65048;DHT22;52089;51.362;-2.384;2022-11-03T20:47:11;8.90;99.90
65048;DHT22;52089;51.362;-2.384;2022-11-03T20:50:54;8.90;99.90
65048;DHT22;52089;51.362;-2.384;2022-11-03T20:54:35;8.90;99.90
65048;DHT22;52089;51.362;-2.384;2022-11-03T20:58:17;9.00;99.90
65048;DHT22;52089;51.362;-2.384;2022-11-03T21:01:59;8.90;99.90
65048;DHT22;52089;51.362;-2.384;2022-11-03T21:05:41;8.90;99.90
65048;DHT22;52089;51.362;-2.384;2022-11-03T21:09:23;9.00;99.90
65048;DHT22;52089;51.362;-2.384;2022-11-03T21:13:12;9.00;99.90
65048;DHT22;52089;51.362;-2.384;2022-11-03T21:16:55;9.10;99.90
65048;DHT22;52089;51.362;-2.384;2022-11-03T21:20:55;9.10;99.90
65048;DHT22;52089;51.362;-2.384;2022-11-03T21:24:37;9.10;99.90
65048;DHT22;52089;51.362;-2.384;2022-11-03T21:28:19;9.10;99.90
65048;DHT22;52089;51.362;-2.384;2022-11-03T21:32:01;9.10;99.90
65048;DHT22;52089;51.362;-2.384;2022-11-03T21:35:45;9.00;99.90
65048;DHT22;52089;51.362;-2.384;2022-11-03T21:39:27;9.10;99.90
65048;DHT22;52089;51.362;-2.384;2022-11-03T21:43:10;9.00;99.90
65048;DHT22;52089;51.362;-2.384;2022-11-03T21:47:11;9.10;99.90
65048;DHT22;52089;51.362;-2.384;2022-11-03T21:50:53;9.00;99.90
65048;DHT22;52089;51.362;-2.384;2022-11-03T21:54:35;9.00;99.90
65048;DHT22;52089;51.362;-2.384;2022-11-03T21:58:16;9.10;99.90
65048;DHT22;52089;51.362;-2.384;2022-11-03T22:01:59;9.10;99.90
65048;DHT22;52089;51.362;-2.384;2022-11-03T22:05:41;9.10;99.90
65048;DHT22;52089;51.362;-2.384;2022-11-03T22:09:23;9.10;99.90
65048;DHT22;52089;51.362;-2.384;2022-11-03T22:13:05;9.10;99.90
65048;DHT22;52089;51.362;-2.384;2022-11-03T22:16:48;9.10;99.90
65048;DHT22;52089;51.362;-2.384;2022-11-03T22:20:30;9.10;99.90
65048;DHT22;52089;51.362;-2.384;2022-11-03T22:24:30;9.10;99.90
65048;DHT22;52089;51.362;-2.384;2022-11-03T22:28:30;9.10;99.90
65048;DHT22;52089;51.362;-2.384;2022-11-03T22:32:13;9.10;99.90
65048;DHT22;52089;51.362;-2.384;2022-11-03T22:35:55;9.10;99.90
65048;DHT22;52089;51.362;-2.384;2022-11-03T22:40:03;9.00;99.90
65048;DHT22;52089;51.362;-2.384;2022-11-03T22:44:04;9.00;99.90
65048;DHT22;52089;51.362;-2.384;2022-11-03T22:48:04;9.00;99.90
65048;DHT22;52089;51.362;-2.384;2022-11-03T22:51:47;9.00;99.90
65048;DHT22;52089;51.362;-2.384;2022-11-03T22:55:29;9.00;99.90
65048;DHT22;52089;51.362;-2.384;2022-11-03T22:59:10;8.90;99.90
65048;DHT22;52089;51.362;-2.384;2022-11-03T23:02:53;8.90;99.90
65048;DHT22;52089;51.362;-2.384;2022-11-03T23:06:37;8.90;99.90
65048;DHT22;52089;51.362;-2.384;2022-11-03T23:10:21;8.80;99.90
65048;DHT22;52089;51.362;-2.384;2022-11-03T23:14:10;8.70;99.90
65048;DHT22;52089;51.362;-2.384;2022-11-03T23:17:52;8.60;99.90
65048;DHT22;52089;51.362;-2.384;2022-11-03T23:21:52;8.50;99.90
65048;DHT22;52089;51.362;-2.384;2022-11-03T23:25:34;8.30;99.90
65048;DHT22;52089;51.362;-2.384;2022-11-03T23:29:16;8.20;99.90
65048;DHT22;52089;51.362;-2.384;2022-11-03T23:32:59;8.00;99.90
65048;DHT22;52089;51.362;-2.384;2022-11-03T23:36:41;8.00;99.90
65048;DHT22;52089;51.362;-2.384;2022-11-03T23:40:22;7.90;99.90
65048;DHT22;52089;51.362;-2.384;2022-11-03T23:44:04;7.80;99.90
65048;DHT22;52089;51.362;-2.384;2022-11-03T23:47:46;7.70;99.90
65048;DHT22;52089;51.362;-2.384;2022-11-03T23:51:47;7.80;99.90
65048;DHT22;52089;51.362;-2.384;2022-11-03T23:55:29;7.90;99.90
65048;DHT22;52089;51.362;-2.384;2022-11-03T23:59:32;8.00;99.90
